Time;durP1;ratioP1;P1;durP2;ratioP2;P2;SDS_P1;SDS_P2;PMS_P1;PMS_P2;Temp;Humidity;BMP_temperature;BMP_pressure;BME280_temperature;BME280_humidity;BME280_pressure;Samples;Min_cycle;Max_cycle;Signal;HPM_P1;HPM_P2
2023/08/19 00:03:22;;;;;;;4.33;3.90;;;23.60;99.90;;;;;;10385514;28;20289;-85
2023/08/19 00:08:26;;;;;;;4.40;4.00;;;23.50;99.90;;;;;;10406611;28;20191;-86
2023/08/19 00:13:28;;;;;;;3.50;3.23;;;23.50;99.90;;;;;;10388485;28;20219;-85
2023/08/19 00:18:30;;;;;;;7.43;4.53;;;23.40;99.90;;;;;;10404286;28;20241;-85
2023/08/19 00:23:33;;;;;;;3.50;3.30;;;23.40;99.90;;;;;;10407366;28;20674;-84
2023/08/19 00:28:35;;;;;;;3.63;3.43;;;23.40;99.90;;;;;;10422365;28;20184;-85
2023/08/19 00:33:38;;;;;;;4.70;4.03;;;23.40;99.90;;;;;;10361406;28;20229;-85
2023/08/19 00:38:41;;;;;;;4.30;4.00;;;23.30;99.90;;;;;;10388849;28;20228;-85
2023/08/19 00:43:43;;;;;;;4.13;3.83;;;23.30;99.90;;;;;;10388736;28;20247;-85
2023/08/19 00:48:46;;;;;;;3.60;3.33;;;23.30;99.90;;;;;;10418106;28;20673;-85
2023/08/19 00:53:50;;;;;;;4.03;3.73;;;23.20;99.90;;;;;;10415171;28;20218;-85
2023/08/19 00:58:52;;;;;;;3.60;3.40;;;23.20;99.90;;;;;;10438217;28;20308;-85
2023/08/19 01:03:54;;;;;;;3.60;3.40;;;23.20;99.90;;;;;;10433517;28;20700;-85
2023/08/19 01:09:04;;;;;;;3.63;3.33;;;23.10;99.90;;;;;;10423075;28;20580;-83
2023/08/19 01:14:16;;;;;;;5.03;4.03;;;23.10;99.90;;;;;;10455332;28;20207;-86
2023/08/19 01:19:25;;;;;;;4.03;3.73;;;23.10;99.90;;;;;;10438644;28;20213;-85
2023/08/19 01:24:38;;;;;;;4.23;3.80;;;23.00;99.90;;;;;;10438070;28;20218;-85
2023/08/19 01:29:41;;;;;;;4.63;4.20;;;23.00;99.90;;;;;;10439046;28;20194;-85
2023/08/19 01:34:43;;;;;;;4.60;3.63;;;22.90;99.90;;;;;;10452746;28;20202;-86
2023/08/19 01:39:48;;;;;;;4.73;3.83;;;22.90;99.90;;;;;;10434205;28;20225;-85
2023/08/19 01:44:51;;;;;;;4.83;4.23;;;22.90;99.90;;;;;;10453876;28;20617;-85
2023/08/19 01:49:53;;;;;;;3.83;3.63;;;22.90;99.90;;;;;;10438853;28;20229;-85
2023/08/19 01:54:57;;;;;;;4.63;4.23;;;22.80;99.90;;;;;;10443433;28;20197;-85
2023/08/19 01:59:59;;;;;;;4.13;3.83;;;22.80;99.90;;;;;;10460277;28;20214;-85
2023/08/19 02:05:01;;;;;;;4.50;4.20;;;22.80;99.90;;;;;;10444153;28;20194;-85
2023/08/19 02:10:05;;;;;;;4.53;4.20;;;22.80;99.90;;;;;;10446966;28;20271;-85
2023/08/19 02:15:08;;;;;;;4.60;4.30;;;22.70;99.90;;;;;;10470283;28;20228;-85
2023/08/19 02:20:12;;;;;;;4.80;4.40;;;22.70;99.90;;;;;;10436396;28;20218;-84
2023/08/19 02:25:15;;;;;;;4.40;4.10;;;22.70;99.90;;;;;;10437092;28;20205;-85
2023/08/19 02:30:18;;;;;;;6.20;4.40;;;22.70;99.90;;;;;;10436721;28;20214;-84
2023/08/19 02:35:20;;;;;;;6.07;4.20;;;22.60;99.90;;;;;;10437893;28;20280;-85
2023/08/19 02:40:24;;;;;;;14.00;4.43;;;22.60;99.90;;;;;;10443156;28;20479;-85
2023/08/19 02:45:27;;;;;;;5.30;4.90;;;22.50;99.90;;;;;;10436113;28;20201;-85
2023/08/19 02:50:29;;;;;;;4.80;4.50;;;22.50;99.90;;;;;;10450636;28;20229;-85
2023/08/19 02:55:33;;;;;;;4.73;4.43;;;22.50;99.90;;;;;;10436583;28;20285;-85
2023/08/19 03:00:36;;;;;;;10.13;4.80;;;22.50;99.90;;;;;;10451746;28;20280;-85
2023/08/19 03:05:39;;;;;;;4.40;4.10;;;22.50;99.90;;;;;;10416262;28;20202;-85
2023/08/19 03:10:42;;;;;;;3.90;3.60;;;22.40;99.90;;;;;;10418315;28;20214;-85
2023/08/19 03:15:45;;;;;;;4.60;4.37;;;22.40;99.90;;;;;;10453271;28;20197;-85
2023/08/19 03:20:55;;;;;;;5.30;4.73;;;22.40;99.90;;;;;;10451290;28;20213;-85
2023/08/19 03:25:59;;;;;;;4.60;4.30;;;22.40;99.90;;;;;;10434223;28;20193;-85
2023/08/19 03:31:08;;;;;;;6.20;4.47;;;22.30;99.90;;;;;;10434143;28;20214;-85
2023/08/19 03:36:11;;;;;;;5.13;4.83;;;22.30;99.90;;;;;;10407932;28;20572;-85
2023/08/19 03:41:14;;;;;;;5.47;4.30;;;22.30;99.90;;;;;;10399144;28;20221;-85
2023/08/19 03:46:16;;;;;;;5.33;4.67;;;22.20;99.90;;;;;;10434488;28;20653;-85
2023/08/19 03:51:18;;;;;;;5.93;4.97;;;22.20;99.90;;;;;;10434014;28;20653;-85
2023/08/19 03:56:22;;;;;;;5.47;5.07;;;22.20;99.90;;;;;;10449552;28;20214;-85
2023/08/19 04:01:24;;;;;;;5.20;4.90;;;22.20;99.90;;;;;;10451960;28;20224;-86
2023/08/19 04:06:26;;;;;;;4.30;4.00;;;22.10;99.90;;;;;;10449606;28;20202;-86
2023/08/19 04:11:32;;;;;;;4.50;4.20;;;22.10;99.90;;;;;;10433668;28;20221;-85
2023/08/19 04:16:34;;;;;;;5.00;4.57;;;22.10;99.90;;;;;;10421463;28;20206;-85
2023/08/19 04:21:36;;;;;;;4.30;3.80;;;22.00;99.90;;;;;;10466311;28;20226;-85
2023/08/19 04:26:40;;;;;;;4.50;4.17;;;22.00;99.90;;;;;;10445227;28;20202;-85
2023/08/19 04:31:43;;;;;;;4.77;4.37;;;22.00;99.90;;;;;;10440279;28;20614;-85
2023/08/19 04:36:45;;;;;;;4.37;4.07;;;22.00;99.90;;;;;;10427254;28;20300;-85
2023/08/19 04:41:49;;;;;;;5.87;4.47;;;22.00;99.90;;;;;;10439166;28;20226;-85
2023/08/19 04:46:55;;;;;;;4.80;4.30;;;22.00;99.90;;;;;;10423528;28;20646;-85
2023/08/19 04:51:58;;;;;;;4.47;4.17;;;21.90;99.90;;;;;;10423673;28;20226;-84
2023/08/19 04:57:03;;;;;;;4.47;4.07;;;21.90;99.90;;;;;;10439914;28;20205;-85
2023/08/19 05:02:06;;;;;;;4.23;3.93;;;21.90;99.90;;;;;;10440071;28;20784;-86
2023/08/19 05:07:08;;;;;;;5.77;4.13;;;22.00;99.90;;;;;;10422691;28;20259;-85
2023/08/19 05:12:12;;;;;;;4.10;3.80;;;22.00;99.90;;;;;;10436983;28;20202;-85
2023/08/19 05:17:15;;;;;;;4.73;4.37;;;22.00;99.90;;;;;;10439707;28;20198;-86
2023/08/19 05:22:17;;;;;;;5.13;4.73;;;22.10;99.90;;;;;;10439157;28;20230;-85
2023/08/19 05:27:21;;;;;;;4.67;4.37;;;22.10;99.90;;;;;;10439153;28;20572;-84
2023/08/19 05:32:23;;;;;;;4.90;4.47;;;22.10;99.90;;;;;;10376124;28;20865;-85
2023/08/19 05:37:25;;;;;;;4.03;3.73;;;22.20;99.90;;;;;;10400374;28;20206;-85
2023/08/19 05:42:29;;;;;;;4.70;4.40;;;22.20;99.90;;;;;;10455586;28;20290;-85
2023/08/19 05:47:31;;;;;;;4.40;4.10;;;22.20;99.90;;;;;;10437999;28;20217;-85
2023/08/19 05:52:33;;;;;;;5.60;4.30;;;22.30;99.90;;;;;;10456387;28;20724;-85
2023/08/19 05:57:36;;;;;;;3.70;3.50;;;22.30;99.90;;;;;;10455105;28;20243;-86
2023/08/19 06:02:39;;;;;;;5.20;4.80;;;22.40;99.90;;;;;;10450568;28;20246;-85
2023/08/19 06:07:41;;;;;;;4.23;3.73;;;22.40;99.90;;;;;;10420645;28;20198;-81
2023/08/19 06:12:44;;;;;;;4.53;4.20;;;22.40;99.90;;;;;;10464266;28;20712;-85
2023/08/19 06:17:46;;;;;;;4.60;4.23;;;22.50;99.90;;;;;;10452275;28;20202;-85
2023/08/19 06:22:48;;;;;;;4.70;4.30;;;22.50;99.90;;;;;;10446176;28;20272;-84
2023/08/19 06:27:52;;;;;;;5.30;4.80;;;22.60;99.90;;;;;;10465601;28;20670;-84
2023/08/19 06:32:54;;;;;;;6.20;4.03;;;22.70;99.90;;;;;;10454217;28;20693;-85
2023/08/19 06:38:00;;;;;;;6.50;4.57;;;22.80;99.90;;;;;;10423572;28;20230;-85
2023/08/19 06:43:07;;;;;;;4.73;4.33;;;22.80;99.90;;;;;;10427231;28;20356;-83
2023/08/19 06:48:09;;;;;;;6.20;4.57;;;22.90;99.90;;;;;;10417128;28;20201;-85
2023/08/19 06:53:12;;;;;;;4.97;4.57;;;23.00;99.90;;;;;;10399213;28;20249;-84
2023/08/19 06:58:22;;;;;;;4.93;4.43;;;23.10;99.90;;;;;;10437102;28;20210;-85
2023/08/19 07:03:25;;;;;;;4.70;4.30;;;23.20;99.90;;;;;;10398507;28;20226;-85
2023/08/19 07:08:30;;;;;;;5.90;5.40;;;23.30;99.90;;;;;;10414655;28;20253;-85
2023/08/19 07:13:34;;;;;;;5.63;5.20;;;23.40;99.90;;;;;;10376008;28;20246;-84
2023/08/19 07:18:40;;;;;;;6.30;5.70;;;23.40;99.90;;;;;;10444145;28;20596;-85
2023/08/19 07:23:45;;;;;;;6.03;5.43;;;23.50;99.90;;;;;;10425672;28;20242;-85
2023/08/19 07:28:49;;;;;;;7.00;5.53;;;23.60;99.90;;;;;;10433148;28;20213;-84
2023/08/19 07:33:52;;;;;;;9.50;6.27;;;23.70;99.90;;;;;;10395537;28;20266;-85
2023/08/19 07:38:54;;;;;;;5.80;5.40;;;23.80;99.90;;;;;;10437408;28;20294;-84
2023/08/19 07:43:57;;;;;;;6.67;5.50;;;24.10;99.90;;;;;;10445584;28;20249;-85
2023/08/19 07:49:00;;;;;;;7.43;5.07;;;24.50;99.90;;;;;;10402874;28;20237;-84
2023/08/19 07:54:02;;;;;;;6.93;5.87;;;24.90;99.90;;;;;;10451211;28;20234;-85
2023/08/19 07:59:06;;;;;;;6.70;5.00;;;25.30;99.90;;;;;;10455349;28;20275;-85
2023/08/19 08:04:08;;;;;;;11.67;5.67;;;25.60;99.90;;;;;;10439013;28;20218;-85
2023/08/19 08:09:10;;;;;;;6.27;4.60;;;25.90;99.90;;;;;;10425643;28;20229;-85
2023/08/19 08:14:14;;;;;;;6.50;4.70;;;26.20;99.90;;;;;;10415845;28;20222;-85
2023/08/19 08:19:16;;;;;;;10.60;4.70;;;26.30;99.90;;;;;;10400168;28;20206;-86
2023/08/19 08:24:18;;;;;;;5.17;4.60;;;26.50;99.90;;;;;;10462557;28;20234;-85
2023/08/19 08:29:22;;;;;;;4.60;4.27;;;26.60;99.90;;;;;;10453444;28;20191;-85
2023/08/19 08:34:24;;;;;;;4.40;4.10;;;26.80;99.90;;;;;;10484981;28;20261;-85
2023/08/19 08:39:26;;;;;;;7.27;4.57;;;27.00;99.90;;;;;;10444793;28;20198;-86
2023/08/19 08:44:31;;;;;;;4.77;4.37;;;27.20;99.90;;;;;;10448797;28;20225;-85
2023/08/19 08:49:33;;;;;;;4.13;3.73;;;27.50;99.90;;;;;;10426582;28;20201;-86
2023/08/19 08:54:37;;;;;;;6.30;4.03;;;27.60;99.90;;;;;;10398970;28;20203;-85
2023/08/19 08:59:41;;;;;;;4.87;4.47;;;27.60;99.90;;;;;;10443102;28;20194;-85
2023/08/19 09:04:44;;;;;;;4.63;3.83;;;27.60;99.90;;;;;;10361109;28;20625;-85
2023/08/19 09:09:50;;;;;;;3.90;3.60;;;27.60;99.90;;;;;;10382977;28;20198;-86
2023/08/19 09:14:58;;;;;;;4.20;3.80;;;27.60;99.90;;;;;;10404426;28;20752;-86
2023/08/19 09:20:01;;;;;;;3.83;3.53;;;27.50;99.90;;;;;;10425452;28;20225;-85
2023/08/19 09:25:07;;;;;;;6.30;3.97;;;27.40;99.90;;;;;;10435131;28;20615;-85
2023/08/19 09:30:16;;;;;;;3.73;3.53;;;27.40;99.90;;;;;;10451713;28;20301;-85
2023/08/19 09:35:18;;;;;;;4.67;4.17;;;27.50;99.90;;;;;;10444295;28;20201;-84
2023/08/19 09:40:22;;;;;;;5.20;3.93;;;27.60;99.90;;;;;;10458909;28;20340;-83
2023/08/19 09:45:26;;;;;;;8.10;6.67;;;27.90;99.90;;;;;;10430971;28;20224;-85
2023/08/19 09:50:28;;;;;;;6.90;4.60;;;28.30;99.80;;;;;;10450451;28;20230;-84
2023/08/19 09:55:33;;;;;;;15.43;4.67;;;28.70;98.90;;;;;;10412774;28;20219;-85
2023/08/19 10:00:37;;;;;;;5.67;4.00;;;29.40;98.50;;;;;;10458162;28;20256;-85
2023/08/19 10:05:40;;;;;;;6.20;5.03;;;29.90;97.80;;;;;;10418518;28;20201;-84
2023/08/19 10:10:45;;;;;;;11.90;5.20;;;30.30;97.40;;;;;;10450108;28;20249;-85
2023/08/19 10:15:50;;;;;;;4.53;4.10;;;30.70;97.50;;;;;;10443075;28;20639;-84
2023/08/19 10:20:56;;;;;;;5.93;3.73;;;31.00;95.50;;;;;;10458463;28;20226;-85
2023/08/19 10:25:59;;;;;;;3.93;3.63;;;31.00;95.60;;;;;;10453424;28;20204;-85
2023/08/19 10:31:10;;;;;;;5.73;4.20;;;30.70;93.70;;;;;;10453232;28;20254;-84
2023/08/19 10:36:15;;;;;;;4.80;4.30;;;30.50;94.90;;;;;;10430859;28;20203;-85
2023/08/19 10:41:28;;;;;;;3.60;3.30;;;30.10;95.50;;;;;;10455950;28;20766;-85
2023/08/19 10:46:37;;;;;;;7.13;4.17;;;29.80;96.40;;;;;;10469075;28;20198;-84
2023/08/19 10:51:51;;;;;;;4.90;4.33;;;29.50;96.70;;;;;;10483023;22;20228;-80
2023/08/19 10:56:53;;;;;;;5.50;4.70;;;29.30;95.90;;;;;;10476504;28;20254;-79
2023/08/19 11:01:58;;;;;;;4.03;3.73;;;29.20;96.30;;;;;;10477029;28;20227;-80
2023/08/19 11:07:00;;;;;;;5.83;4.47;;;29.10;96.10;;;;;;10464928;28;20202;-78
2023/08/19 11:12:03;;;;;;;4.83;4.17;;;29.00;95.90;;;;;;10468755;28;20210;-80
2023/08/19 11:17:07;;;;;;;8.43;4.47;;;28.80;96.50;;;;;;10463959;28;20588;-79
2023/08/19 11:22:12;;;;;;;4.70;4.30;;;28.70;95.50;;;;;;10434187;28;20226;-80
2023/08/19 11:27:17;;;;;;;5.53;4.20;;;28.80;95.60;;;;;;10491138;28;20202;-81
2023/08/19 11:32:21;;;;;;;5.30;4.67;;;28.70;94.80;;;;;;10457428;28;20232;-80
2023/08/19 11:37:23;;;;;;;4.50;4.10;;;28.70;94.70;;;;;;10471593;28;20688;-82
2023/08/19 11:42:26;;;;;;;3.87;3.50;;;28.80;95.00;;;;;;10433774;28;20218;-80
2023/08/19 11:47:33;;;;;;;4.50;4.10;;;29.00;94.40;;;;;;10467349;28;20296;-82
2023/08/19 11:52:36;;;;;;;7.50;4.10;;;29.20;93.80;;;;;;10487139;28;20609;-80
2023/08/19 11:57:38;;;;;;;5.77;4.67;;;29.50;94.30;;;;;;10445680;28;20703;-82
2023/08/19 12:02:42;;;;;;;4.53;4.13;;;29.60;93.80;;;;;;10457912;28;20238;-81
2023/08/19 12:07:44;;;;;;;4.17;3.77;;;29.60;94.40;;;;;;10455953;28;20296;-81
2023/08/19 12:12:59;;;;;;;4.40;4.00;;;29.40;94.10;;;;;;10467666;28;20218;-80
2023/08/19 12:18:03;;;;;;;3.87;3.60;;;29.30;93.70;;;;;;10474262;28;20193;-82
2023/08/19 12:23:05;;;;;;;6.30;4.57;;;29.30;93.20;;;;;;10486227;28;20282;-82
2023/08/19 12:28:07;;;;;;;7.97;4.67;;;29.30;93.10;;;;;;10464088;28;20233;-79
2023/08/19 12:33:11;;;;;;;5.37;4.30;;;29.30;91.40;;;;;;10482505;28;20213;-81
2023/08/19 12:38:14;;;;;;;4.30;4.00;;;29.40;92.60;;;;;;10467853;28;20263;-81
2023/08/19 12:43:16;;;;;;;4.03;3.73;;;29.40;93.70;;;;;;10465609;28;20221;-80
2023/08/19 12:48:20;;;;;;;4.37;4.00;;;29.20;94.50;;;;;;10457776;28;20197;-82
2023/08/19 12:53:22;;;;;;;4.33;3.93;;;29.10;92.90;;;;;;10497349;28;20577;-82
2023/08/19 12:58:24;;;;;;;9.63;4.63;;;29.10;93.50;;;;;;10471489;28;20202;-82
2023/08/19 13:03:28;;;;;;;7.70;4.47;;;29.20;93.70;;;;;;10466154;28;20651;-82
2023/08/19 13:08:30;;;;;;;4.50;4.10;;;29.40;93.80;;;;;;10427578;28;20194;-80
2023/08/19 13:13:32;;;;;;;6.60;4.73;;;29.70;93.30;;;;;;10452114;28;20210;-81
2023/08/19 13:18:35;;;;;;;4.57;4.17;;;29.80;92.80;;;;;;10447443;28;20202;-82
2023/08/19 13:23:37;;;;;;;4.83;3.73;;;30.00;92.50;;;;;;10452689;28;20229;-82
2023/08/19 13:28:39;;;;;;;4.50;4.10;;;30.10;92.50;;;;;;10451573;28;20195;-82
2023/08/19 13:33:43;;;;;;;5.43;4.17;;;30.20;91.50;;;;;;10433924;28;20592;-80
2023/08/19 13:38:45;;;;;;;4.63;4.23;;;30.20;91.50;;;;;;10453708;28;20244;-82
2023/08/19 13:43:47;;;;;;;4.53;4.10;;;30.20;92.30;;;;;;10433034;28;20215;-80
2023/08/19 13:48:50;;;;;;;5.30;4.77;;;30.20;92.50;;;;;;10454010;28;20208;-80
2023/08/19 13:53:52;;;;;;;6.10;5.50;;;30.20;94.00;;;;;;10471321;28;20226;-80
2023/08/19 13:58:54;;;;;;;5.63;5.23;;;30.30;94.70;;;;;;10454041;28;20284;-80
2023/08/19 14:03:58;;;;;;;5.47;4.97;;;30.30;94.20;;;;;;10446539;28;20225;-79
2023/08/19 14:09:00;;;;;;;6.60;5.50;;;30.20;93.80;;;;;;10458944;28;20198;-82
2023/08/19 14:14:02;;;;;;;6.50;5.87;;;30.20;93.50;;;;;;10486979;28;20221;-81
2023/08/19 14:19:06;;;;;;;6.00;5.50;;;30.10;94.30;;;;;;10455480;28;20284;-81
2023/08/19 14:24:09;;;;;;;6.53;5.63;;;30.00;94.50;;;;;;10475318;28;20229;-82
2023/08/19 14:29:11;;;;;;;6.17;5.57;;;29.90;95.40;;;;;;10487448;28;20197;-81
2023/08/19 14:34:15;;;;;;;5.97;5.17;;;29.80;94.50;;;;;;10461912;28;20221;-82
2023/08/19 14:39:18;;;;;;;6.27;5.67;;;29.90;94.20;;;;;;10450061;28;20205;-82
2023/08/19 14:44:20;;;;;;;7.73;5.00;;;29.90;93.90;;;;;;10467743;28;20761;-81
2023/08/19 14:49:23;;;;;;;5.97;5.40;;;29.90;94.30;;;;;;10490455;28;20209;-82
2023/08/19 14:54:25;;;;;;;6.40;5.90;;;29.80;94.50;;;;;;10461150;28;20286;-81
2023/08/19 14:59:29;;;;;;;6.37;5.87;;;29.60;95.70;;;;;;10447672;28;20204;-82
2023/08/19 15:04:33;;;;;;;7.00;5.30;;;29.50;94.70;;;;;;10464644;28;20700;-80
2023/08/19 15:09:35;;;;;;;5.37;4.97;;;29.40;94.00;;;;;;10466025;28;20715;-79
2023/08/19 15:14:37;;;;;;;5.27;4.93;;;29.30;94.40;;;;;;10478170;28;20213;-82
2023/08/19 15:19:40;;;;;;;6.03;5.53;;;29.20;94.60;;;;;;10473860;28;20692;-80
2023/08/19 15:24:42;;;;;;;7.63;4.83;;;29.20;94.60;;;;;;10458032;28;20268;-81
2023/08/19 15:29:45;;;;;;;7.67;4.93;;;29.20;95.20;;;;;;10461475;28;20201;-83
2023/08/19 15:34:48;;;;;;;5.77;5.27;;;29.10;96.10;;;;;;10469295;28;20689;-81
2023/08/19 15:39:50;;;;;;;5.87;5.33;;;29.00;96.00;;;;;;10441668;28;20214;-80
2023/08/19 15:44:52;;;;;;;5.70;5.30;;;28.90;96.50;;;;;;10476001;28;20651;-81
2023/08/19 15:49:57;;;;;;;5.40;5.00;;;28.80;96.20;;;;;;10477103;28;20460;-82
2023/08/19 15:54:59;;;;;;;5.57;5.17;;;28.80;95.80;;;;;;10486872;28;20217;-81
2023/08/19 16:00:01;;;;;;;6.60;6.00;;;28.70;95.90;;;;;;10477540;28;20217;-82
2023/08/19 16:05:05;;;;;;;6.03;5.57;;;28.70;96.60;;;;;;10475120;28;20247;-82
2023/08/19 16:15:45;;;;;;;7.70;7.00;;;28.60;96.50;;;;;;10439520;28;20202;-82
2023/08/19 16:20:54;;;;;;;7.53;6.73;;;28.50;97.00;;;;;;10479643;28;20710;-81
2023/08/19 16:25:56;;;;;;;7.33;6.33;;;28.50;97.10;;;;;;10503781;28;20734;-81
2023/08/19 16:30:59;;;;;;;5.97;5.47;;;28.40;97.40;;;;;;10463439;28;20304;-80
2023/08/19 16:36:03;;;;;;;6.30;5.53;;;28.20;98.10;;;;;;10455087;28;20612;-82
2023/08/19 16:41:07;;;;;;;6.77;6.17;;;28.20;98.30;;;;;;10438673;28;20249;-80
2023/08/19 16:46:10;;;;;;;6.97;5.53;;;28.00;98.80;;;;;;10466471;28;20229;-81
2023/08/19 16:51:13;;;;;;;5.97;5.00;;;28.00;98.50;;;;;;10457120;28;20726;-81
2023/08/19 16:56:15;;;;;;;6.03;5.43;;;27.90;97.90;;;;;;10448599;22;20240;-83
2023/08/19 17:01:17;;;;;;;6.13;5.50;;;27.80;99.70;;;;;;10452890;28;20204;-82
2023/08/19 17:06:21;;;;;;;6.93;6.10;;;27.70;99.90;;;;;;10482099;28;20214;-84
2023/08/19 17:11:24;;;;;;;6.50;6.00;;;27.60;99.90;;;;;;10472669;28;20189;-82
2023/08/19 17:16:26;;;;;;;7.07;6.37;;;27.60;99.90;;;;;;10504012;28;20202;-84
2023/08/19 17:21:30;;;;;;;7.20;6.40;;;27.60;99.90;;;;;;10499438;28;20209;-82
2023/08/19 17:26:32;;;;;;;10.27;9.30;;;27.50;99.90;;;;;;10496318;28;20248;-85
2023/08/19 17:31:36;;;;;;;7.10;6.40;;;27.40;99.90;;;;;;10443770;28;20790;-83
2023/08/19 17:36:39;;;;;;;7.20;6.10;;;27.30;99.90;;;;;;10423053;28;20229;-84
2023/08/19 17:41:41;;;;;;;7.90;7.10;;;27.30;99.90;;;;;;10451749;28;20225;-83
2023/08/19 17:46:43;;;;;;;7.50;6.87;;;27.30;99.90;;;;;;10451288;28;20222;-83
2023/08/19 17:51:48;;;;;;;6.90;6.30;;;27.20;99.90;;;;;;10452240;28;20552;-82
2023/08/19 17:56:51;;;;;;;8.00;7.20;;;27.20;99.90;;;;;;10436271;28;20229;-84
2023/08/19 18:01:53;;;;;;;7.47;6.43;;;27.10;99.90;;;;;;10452421;28;20672;-82
2023/08/19 18:06:56;;;;;;;7.43;6.73;;;27.10;99.90;;;;;;10435694;28;20189;-83
2023/08/19 18:11:58;;;;;;;7.40;6.80;;;27.10;99.90;;;;;;10436237;28;20800;-83
2023/08/19 18:17:00;;;;;;;7.20;6.70;;;27.10;99.90;;;;;;10435763;28;20320;-83
2023/08/19 18:22:05;;;;;;;7.70;7.10;;;27.10;99.90;;;;;;10434611;28;21133;-84
2023/08/19 18:27:07;;;;;;;8.40;7.47;;;27.00;99.90;;;;;;10435675;28;20213;-84
2023/08/19 18:32:09;;;;;;;8.20;7.40;;;26.90;99.90;;;;;;10448179;28;20204;-83
2023/08/19 18:37:13;;;;;;;8.00;7.30;;;26.90;99.90;;;;;;10427588;28;20206;-84
2023/08/19 18:42:15;;;;;;;7.10;6.40;;;26.80;99.90;;;;;;10428965;28;20320;-85
2023/08/19 18:47:17;;;;;;;9.67;8.80;;;26.70;99.90;;;;;;10446748;28;20198;-84
2023/08/19 18:52:20;;;;;;;9.37;8.57;;;26.60;99.90;;;;;;10430719;28;20217;-84
2023/08/19 18:57:23;;;;;;;8.93;8.23;;;26.60;99.90;;;;;;10449795;28;20206;-85
2023/08/19 19:02:25;;;;;;;10.53;9.07;;;26.50;99.90;;;;;;10443278;28;20276;-84
2023/08/19 19:07:29;;;;;;;7.83;7.33;;;26.50;99.90;;;;;;10426862;28;20209;-84
2023/08/19 19:12:32;;;;;;;8.93;8.07;;;26.50;99.90;;;;;;10437924;28;20221;-84
2023/08/19 19:17:49;;;;;;;7.93;7.33;;;26.50;99.90;;;;;;10423300;28;20293;-85
2023/08/19 19:22:53;;;;;;;8.40;7.70;;;26.50;99.90;;;;;;10432423;28;20217;-83
2023/08/19 19:27:56;;;;;;;8.40;7.50;;;26.50;99.90;;;;;;10445700;28;20252;-83
2023/08/19 19:32:58;;;;;;;10.10;7.60;;;26.50;99.90;;;;;;10427631;28;20209;-84
2023/08/19 19:38:01;;;;;;;8.43;7.63;;;26.50;99.90;;;;;;10456787;28;20202;-83
2023/08/19 19:43:04;;;;;;;9.27;8.27;;;26.40;99.90;;;;;;10460952;28;20617;-83
2023/08/19 19:48:06;;;;;;;10.63;7.00;;;26.40;99.90;;;;;;10443698;28;20205;-84
2023/08/19 19:53:10;;;;;;;9.30;8.50;;;26.40;99.90;;;;;;10444287;28;20662;-83
2023/08/19 19:58:12;;;;;;;8.83;7.70;;;26.40;99.90;;;;;;10462765;28;20197;-84
2023/08/19 20:03:14;;;;;;;8.03;7.43;;;26.30;99.90;;;;;;10452389;28;20217;-84
2023/08/19 20:08:18;;;;;;;9.17;8.40;;;26.30;99.90;;;;;;10456853;28;20206;-84
2023/08/19 20:13:20;;;;;;;9.53;8.57;;;26.20;99.90;;;;;;10445912;28;20222;-83
2023/08/19 20:18:22;;;;;;;8.43;7.23;;;26.20;99.90;;;;;;10464860;28;20268;-84
2023/08/19 20:23:26;;;;;;;8.07;7.37;;;26.10;99.90;;;;;;10416959;28;20597;-84
2023/08/19 20:28:28;;;;;;;9.10;8.30;;;26.10;99.90;;;;;;10451644;28;20313;-84
2023/08/19 20:33:30;;;;;;;12.47;8.00;;;26.00;99.90;;;;;;10452051;28;20248;-83
2023/08/19 20:38:34;;;;;;;8.83;7.83;;;26.00;99.90;;;;;;10458352;28;20197;-84
2023/08/19 20:43:36;;;;;;;9.10;8.20;;;25.90;99.90;;;;;;10460726;28;20225;-84
2023/08/19 20:48:38;;;;;;;8.17;7.57;;;25.80;99.90;;;;;;10460274;28;20245;-83
2023/08/19 20:53:42;;;;;;;8.43;7.63;;;25.80;99.90;;;;;;10448072;28;20637;-83
2023/08/19 20:58:44;;;;;;;8.83;7.93;;;25.70;99.90;;;;;;10430568;28;20190;-83
2023/08/19 21:03:46;;;;;;;7.97;7.27;;;25.70;99.90;;;;;;10426092;28;20229;-85
2023/08/19 21:08:50;;;;;;;8.13;7.23;;;25.70;99.90;;;;;;10411538;28;20202;-83
2023/08/19 21:13:52;;;;;;;10.37;8.43;;;25.60;99.90;;;;;;10452794;28;20233;-85
2023/08/19 21:18:54;;;;;;;8.90;8.10;;;25.60;99.90;;;;;;10455379;28;20198;-84
2023/08/19 21:23:57;;;;;;;8.03;7.33;;;25.50;99.90;;;;;;10471509;28;20210;-83
2023/08/19 21:29:00;;;;;;;8.50;7.77;;;25.50;99.90;;;;;;10472105;28;20293;-83
2023/08/19 21:34:02;;;;;;;9.83;8.57;;;25.50;99.90;;;;;;10453689;28;20593;-83
2023/08/19 21:39:06;;;;;;;8.17;7.37;;;25.40;99.90;;;;;;10460410;28;20210;-84
2023/08/19 21:44:08;;;;;;;12.83;8.20;;;25.40;99.90;;;;;;10459502;28;20234;-83
2023/08/19 21:49:10;;;;;;;8.77;8.07;;;25.40;99.90;;;;;;10456224;28;20198;-83
2023/08/19 21:54:13;;;;;;;9.37;8.37;;;25.40;99.90;;;;;;10439940;28;20217;-83
2023/08/19 21:59:15;;;;;;;11.43;8.50;;;25.30;99.90;;;;;;10440296;28;20696;-83
2023/08/19 22:04:18;;;;;;;9.93;9.03;;;25.30;99.90;;;;;;10452370;28;20304;-83
2023/08/19 22:09:21;;;;;;;9.73;8.93;;;25.30;99.90;;;;;;10460734;28;20194;-83
2023/08/19 22:14:23;;;;;;;8.03;7.40;;;25.30;99.90;;;;;;10459835;28;20213;-83
2023/08/19 22:19:25;;;;;;;11.40;8.20;;;25.30;99.90;;;;;;10441814;28;20281;-83
2023/08/19 22:24:29;;;;;;;10.60;9.50;;;25.20;99.90;;;;;;10458527;28;20676;-84
2023/08/19 22:29:31;;;;;;;10.10;8.87;;;25.10;99.90;;;;;;10477175;28;20196;-84
2023/08/19 22:34:33;;;;;;;10.03;9.03;;;25.10;99.90;;;;;;10435971;28;20233;-84
2023/08/19 22:39:37;;;;;;;10.40;9.30;;;25.10;99.90;;;;;;10454002;28;20232;-84
2023/08/19 22:44:39;;;;;;;9.40;8.53;;;25.10;99.90;;;;;;10465113;28;20222;-84
2023/08/19 22:49:41;;;;;;;10.10;9.23;;;25.00;99.90;;;;;;10452851;28;20201;-85
2023/08/19 22:54:45;;;;;;;9.47;8.77;;;25.00;99.90;;;;;;10433244;28;20218;-84
2023/08/19 22:59:47;;;;;;;10.37;9.40;;;24.90;99.90;;;;;;10473945;28;20201;-85
2023/08/19 23:04:49;;;;;;;9.40;8.70;;;24.90;99.90;;;;;;10462750;28;20232;-84
2023/08/19 23:09:52;;;;;;;10.57;9.53;;;24.90;99.90;;;;;;10480185;28;20206;-84
2023/08/19 23:14:54;;;;;;;10.40;9.60;;;24.80;99.90;;;;;;10480140;28;20221;-84
2023/08/19 23:19:56;;;;;;;9.80;9.00;;;24.80;99.90;;;;;;10454836;28;20205;-84
2023/08/19 23:25:00;;;;;;;10.67;9.57;;;24.80;99.90;;;;;;10468340;28;20222;-84
2023/08/19 23:30:03;;;;;;;9.47;8.87;;;24.70;99.90;;;;;;10462846;28;20213;-84
2023/08/19 23:35:06;;;;;;;10.63;9.63;;;24.70;99.90;;;;;;10445389;28;20220;-84
2023/08/19 23:40:11;;;;;;;10.13;9.20;;;24.70;99.90;;;;;;10479961;28;20284;-84
2023/08/19 23:45:13;;;;;;;10.57;9.57;;;24.70;99.90;;;;;;10484533;28;20226;-86
2023/08/19 23:50:16;;;;;;;10.47;9.53;;;24.60;99.90;;;;;;10449570;28;20263;-84
2023/08/19 23:55:20;;;;;;;10.90;10.10;;;24.60;99.90;;;;;;10470396;28;20217;-84
